Time;durP1;ratioP1;P1;durP2;ratioP2;P2;SDS_P1;SDS_P2;PMS_P1;PMS_P2;Temp;Humidity;BMP_temperature;BMP_pressure;BME280_temperature;BME280_humidity;BME280_pressure;Samples;Min_cycle;Max_cycle;Signal;HPM_P1;HPM_P2
2022/05/20 00:01:26;;;;;;;;;;;;;;;;;;4993518;28;19921;-84
2022/05/20 00:03:51;;;;;;;;;;;;;;;;;;4993475;28;20012;-86
2022/05/20 00:06:17;;;;;;;;;;;;;;;;;;5001797;28;20025;-83
2022/05/20 00:08:43;;;;;;;;;;;;;;;;;;5013034;28;20374;-82
2022/05/20 00:11:09;;;;;;;;;;;;;;;;;;5013050;28;20016;-81
2022/05/20 00:13:34;;;;;;;;;;;;;;;;;;5012750;28;19950;-81
2022/05/20 00:16:00;;;;;;;;;;;;;;;;;;5013048;28;20389;-82
2022/05/20 00:18:25;;;;;;;;;;;;;;;;;;4995282;28;19921;-84
2022/05/20 00:20:51;;;;;;;;;;;;;;;;;;5013177;28;19918;-84
2022/05/20 00:23:17;;;;;;;;;;;;;;;;;;5012886;28;19918;-83
2022/05/20 00:25:48;;;;;;;;;;;;;;;;;;5013048;28;19918;-85
2022/05/20 00:28:13;;;;;;;;;;;;;;;;;;5012998;28;19917;-84
2022/05/20 00:30:39;;;;;;;;;;;;;;;;;;5012776;28;19924;-83
2022/05/20 00:33:04;;;;;;;;;;;;;;;;;;4983808;28;20687;-84
2022/05/20 00:35:30;;;;;;;;;;;;;;;;;;4994408;28;19922;-81
2022/05/20 00:37:55;;;;;;;;;;;;;;;;;;4993203;28;20016;-82
2022/05/20 00:40:22;;;;;;;;;;;;;;;;;;5000187;28;19917;-83
2022/05/20 00:42:48;;;;;;;;;;;;;;;;;;5012539;28;19921;-82
2022/05/20 00:45:14;;;;;;;;;;;;;;;;;;5012856;28;20382;-83
2022/05/20 00:47:41;;;;;;;;;;;;;;;;;;5012869;28;19960;-81
2022/05/20 00:50:09;;;;;;;;;;;;;;;;;;4994841;28;19917;-81
2022/05/20 00:52:36;;;;;;;;;;;;;;;;;;5012779;28;20398;-82
2022/05/20 00:55:04;;;;;;;;;;;;;;;;;;5012304;28;19944;-80
2022/05/20 00:57:32;;;;;;;;;;;;;;;;;;5012546;28;19925;-83
2022/05/20 01:00:05;;;;;;;;;;;;;;;;;;5012668;28;20008;-84
2022/05/20 01:02:31;;;;;;;;;;;;;;;;;;5012568;28;19964;-84
2022/05/20 01:05:00;;;;;;;;;;;;;;;;;;5012658;28;20297;-79
2022/05/20 01:07:26;;;;;;;;;;;;;;;;;;5012646;28;19917;-83
2022/05/20 01:09:52;;;;;;;;;;;;;;;;;;4995066;28;20353;-83
2022/05/20 01:12:17;;;;;;;;;;;;;;;;;;5012585;28;19960;-83
2022/05/20 01:14:43;;;;;;;;;;;;;;;;;;4994490;28;19984;-79
2022/05/20 01:17:08;;;;;;;;;;;;;;;;;;4997111;28;20012;-80
2022/05/20 01:19:39;;;;;;;;;;;;;;;;;;5016057;28;20032;-81
2022/05/20 01:22:06;;;;;;;;;;;;;;;;;;5015968;28;19972;-83
2022/05/20 01:24:32;;;;;;;;;;;;;;;;;;5015997;28;19917;-83
2022/05/20 01:26:57;;;;;;;;;;;;;;;;;;5016072;28;19922;-83
2022/05/20 01:29:24;;;;;;;;;;;;;;;;;;5015782;28;19921;-81
2022/05/20 01:31:49;;;;;;;;;;;;;;;;;;4998244;28;19914;-79
2022/05/20 01:34:15;;;;;;;;;;;;;;;;;;5015264;28;20456;-79
2022/05/20 01:36:40;;;;;;;;;;;;;;;;;;5015883;28;20004;-81
2022/05/20 01:39:06;;;;;;;;;;;;;;;;;;5015678;28;19922;-85
2022/05/20 01:41:49;;;;;;;;;;;;;;;;;;5015547;28;19937;-82
2022/05/20 01:44:18;;;;;;;;;;;;;;;;;;5015674;28;19921;-79
2022/05/20 01:46:49;;;;;;;;;;;;;;;;;;5015716;28;19918;-83
2022/05/20 01:49:29;;;;;;;;;;;;;;;;;;5015582;28;19971;-82
2022/05/20 01:52:00;;;;;;;;;;;;;;;;;;5015467;28;19945;-80
2022/05/20 01:54:44;;;;;;;;;;;;;;;;;;5014398;28;20301;-84
2022/05/20 01:57:16;;;;;;;;;;;;;;;;;;5015118;28;19994;-83
2022/05/20 01:59:44;;;;;;;;;;;;;;;;;;5015368;28;19924;-83
2022/05/20 02:02:27;;;;;;;;;;;;;;;;;;4981411;28;19918;-80
2022/05/20 02:05:02;;;;;;;;;;;;;;;;;;5015356;28;19917;-81
2022/05/20 02:07:30;;;;;;;;;;;;;;;;;;5015278;28;19980;-80
2022/05/20 02:09:59;;;;;;;;;;;;;;;;;;5001120;28;19913;-83
2022/05/20 02:12:26;;;;;;;;;;;;;;;;;;4995534;28;19918;-81
2022/05/20 02:14:57;;;;;;;;;;;;;;;;;;4977660;28;19960;-82
2022/05/20 02:17:26;;;;;;;;;;;;;;;;;;4995518;28;20017;-83
2022/05/20 02:19:59;;;;;;;;;;;;;;;;;;4995309;28;19928;-84
2022/05/20 02:22:26;;;;;;;;;;;;;;;;;;4977777;28;20539;-78
2022/05/20 02:24:53;;;;;;;;;;;;;;;;;;4995429;28;20275;-79
2022/05/20 02:27:23;;;;;;;;;;;;;;;;;;4994707;28;19918;-83
2022/05/20 02:29:52;;;;;;;;;;;;;;;;;;4977476;28;20357;-81
2022/05/20 02:32:17;;;;;;;;;;;;;;;;;;4995000;28;19928;-81
2022/05/20 02:34:43;;;;;;;;;;;;;;;;;;4994601;28;19926;-80
2022/05/20 02:37:20;;;;;;;;;;;;;;;;;;4977656;28;19964;-82
2022/05/20 02:39:46;;;;;;;;;;;;;;;;;;4994957;28;19925;-82
2022/05/20 02:42:11;;;;;;;;;;;;;;;;;;4977144;28;19975;-84
2022/05/20 02:44:36;;;;;;;;;;;;;;;;;;4995022;28;20017;-80
2022/05/20 02:47:03;;;;;;;;;;;;;;;;;;4995317;28;19917;-85
2022/05/20 02:49:29;;;;;;;;;;;;;;;;;;4977690;28;20432;-82
2022/05/20 02:51:54;;;;;;;;;;;;;;;;;;4994560;28;20016;-81
2022/05/20 02:54:20;;;;;;;;;;;;;;;;;;4994617;28;19972;-82
2022/05/20 02:56:45;;;;;;;;;;;;;;;;;;4976951;28;20109;-83
2022/05/20 03:04:40;;;;;;;;;;;;;;;;;;4994971;28;19925;-81
2022/05/20 03:07:05;;;;;;;;;;;;;;;;;;4994496;28;20016;-80
2022/05/20 03:09:30;;;;;;;;;;;;;;;;;;4994467;28;20041;-84
2022/05/20 03:11:56;;;;;;;;;;;;;;;;;;5006191;28;19928;-78
2022/05/20 03:14:22;;;;;;;;;;;;;;;;;;5007542;28;19944;-82
2022/05/20 03:16:48;;;;;;;;;;;;;;;;;;4996659;28;20008;-84
2022/05/20 03:19:14;;;;;;;;;;;;;;;;;;4995054;28;19971;-82
2022/05/20 03:21:39;;;;;;;;;;;;;;;;;;5013326;28;20274;-79
2022/05/20 03:24:06;;;;;;;;;;;;;;;;;;5013812;28;19917;-81
2022/05/20 03:26:32;;;;;;;;;;;;;;;;;;5013863;28;19929;-85
2022/05/20 03:29:02;;;;;;;;;;;;;;;;;;4996285;28;19918;-80
2022/05/20 03:31:28;;;;;;;;;;;;;;;;;;5012400;28;20397;-83
2022/05/20 03:33:53;;;;;;;;;;;;;;;;;;5012731;28;20014;-84
2022/05/20 03:36:19;;;;;;;;;;;;;;;;;;5004363;28;20468;-79
2022/05/20 03:38:45;;;;;;;;;;;;;;;;;;5003643;28;20001;-81
2022/05/20 03:41:10;;;;;;;;;;;;;;;;;;5003847;28;19917;-79
2022/05/20 03:43:36;;;;;;;;;;;;;;;;;;5001293;28;19926;-80
2022/05/20 03:46:01;;;;;;;;;;;;;;;;;;4986496;28;20299;-83
2022/05/20 03:48:27;;;;;;;;;;;;;;;;;;5003001;28;19922;-78
2022/05/20 03:50:53;;;;;;;;;;;;;;;;;;5004335;28;19932;-79
2022/05/20 03:53:18;;;;;;;;;;;;;;;;;;5004490;28;19918;-80
2022/05/20 03:55:44;;;;;;;;;;;;;;;;;;4984510;28;19971;-80
2022/05/20 03:58:09;;;;;;;;;;;;;;;;;;5002889;28;19921;-79
2022/05/20 04:03:19;;;;;;;;;;;;;;;;;;5011948;28;19929;-75
2022/05/20 04:05:45;;;;;;;;;;;;;;;;;;5012107;28;19921;-84
2022/05/20 04:08:10;;;;;;;;;;;;;;;;;;5013058;28;20360;-79
2022/05/20 04:10:36;;;;;;;;;;;;;;;;;;4982654;28;20370;-80
2022/05/20 04:13:02;;;;;;;;;;;;;;;;;;4993432;28;19941;-77
2022/05/20 04:15:27;;;;;;;;;;;;;;;;;;4992942;28;20382;-80
2022/05/20 04:17:53;;;;;;;;;;;;;;;;;;4993421;28;19917;-81
2022/05/20 04:20:18;;;;;;;;;;;;;;;;;;4992628;28;19922;-78
2022/05/20 04:22:45;;;;;;;;;;;;;;;;;;4993084;28;19918;-81
2022/05/20 04:25:11;;;;;;;;;;;;;;;;;;4993324;28;19929;-81
2022/05/20 04:27:37;;;;;;;;;;;;;;;;;;5007010;28;19928;-82
2022/05/20 04:30:03;;;;;;;;;;;;;;;;;;4993269;28;19918;-82
2022/05/20 04:32:28;;;;;;;;;;;;;;;;;;5007573;28;19918;-78
2022/05/20 04:34:54;;;;;;;;;;;;;;;;;;5012911;28;20299;-83
2022/05/20 04:37:20;;;;;;;;;;;;;;;;;;5008500;28;19922;-83
2022/05/20 04:39:46;;;;;;;;;;;;;;;;;;4993219;28;20355;-83
2022/05/20 04:47:42;;;;;;;;;;;;;;;;;;4993291;28;20274;-82
2022/05/20 04:50:08;;;;;;;;;;;;;;;;;;4975658;28;19918;-83
2022/05/20 04:52:33;;;;;;;;;;;;;;;;;;4995614;28;19921;-79
2022/05/20 04:54:59;;;;;;;;;;;;;;;;;;4996882;28;20438;-83
2022/05/20 04:57:26;;;;;;;;;;;;;;;;;;4996278;28;19922;-82
2022/05/20 04:59:53;;;;;;;;;;;;;;;;;;4979112;28;19917;-83
2022/05/20 05:02:19;;;;;;;;;;;;;;;;;;4996191;28;19928;-82
2022/05/20 05:04:45;;;;;;;;;;;;;;;;;;4997995;28;19918;-80
2022/05/20 05:07:11;;;;;;;;;;;;;;;;;;4980016;28;20370;-81
2022/05/20 05:09:41;;;;;;;;;;;;;;;;;;5013543;28;19921;-79
2022/05/20 05:12:07;;;;;;;;;;;;;;;;;;5015444;28;19976;-79
2022/05/20 05:14:37;;;;;;;;;;;;;;;;;;5013866;28;19925;-83
2022/05/20 05:17:04;;;;;;;;;;;;;;;;;;5015532;28;20388;-82
2022/05/20 05:19:29;;;;;;;;;;;;;;;;;;5009533;28;19917;-78
2022/05/20 05:21:55;;;;;;;;;;;;;;;;;;4978428;28;20279;-78
2022/05/20 05:24:22;;;;;;;;;;;;;;;;;;4978741;28;20442;-78
2022/05/20 05:26:48;;;;;;;;;;;;;;;;;;4996300;28;20712;-75
2022/05/20 05:29:13;;;;;;;;;;;;;;;;;;4979069;28;19928;-82
2022/05/20 05:31:39;;;;;;;;;;;;;;;;;;5005581;28;19980;-77
2022/05/20 05:34:04;;;;;;;;;;;;;;;;;;4995566;28;19928;-80
2022/05/20 05:36:30;;;;;;;;;;;;;;;;;;4995581;28;19922;-79
2022/05/20 05:38:55;;;;;;;;;;;;;;;;;;5004392;28;19972;-77
2022/05/20 05:41:21;;;;;;;;;;;;;;;;;;4997571;28;19922;-78
2022/05/20 05:43:46;;;;;;;;;;;;;;;;;;4997716;28;19926;-82
2022/05/20 05:46:12;;;;;;;;;;;;;;;;;;5015523;28;20016;-81
2022/05/20 05:48:37;;;;;;;;;;;;;;;;;;5008974;28;19921;-82
2022/05/20 05:51:03;;;;;;;;;;;;;;;;;;5015340;28;19944;-80
2022/05/20 05:53:28;;;;;;;;;;;;;;;;;;4997210;28;19953;-79
2022/05/20 05:55:55;;;;;;;;;;;;;;;;;;5015199;28;19949;-80
2022/05/20 05:58:21;;;;;;;;;;;;;;;;;;5014882;28;19921;-83
2022/05/20 06:00:46;;;;;;;;;;;;;;;;;;4997546;28;19928;-85
2022/05/20 06:03:15;;;;;;;;;;;;;;;;;;5013421;28;19917;-79
2022/05/20 06:05:41;;;;;;;;;;;;;;;;;;5015296;28;19928;-82
2022/05/20 06:08:06;;;;;;;;;;;;;;;;;;5015013;28;19925;-82
2022/05/20 06:10:32;;;;;;;;;;;;;;;;;;5014456;28;19922;-82
2022/05/20 06:12:58;;;;;;;;;;;;;;;;;;4996795;28;19922;-83
2022/05/20 06:15:23;;;;;;;;;;;;;;;;;;5011676;28;19924;-82
2022/05/20 06:17:49;;;;;;;;;;;;;;;;;;5014504;28;19924;-80
2022/05/20 06:20:15;;;;;;;;;;;;;;;;;;5014636;28;19949;-81
2022/05/20 06:22:41;;;;;;;;;;;;;;;;;;4996875;28;19953;-81
2022/05/20 06:25:07;;;;;;;;;;;;;;;;;;5014322;28;19921;-79
2022/05/20 06:27:32;;;;;;;;;;;;;;;;;;5014825;28;20500;-81
2022/05/20 06:29:58;;;;;;;;;;;;;;;;;;5007017;28;19922;-81
2022/05/20 06:32:23;;;;;;;;;;;;;;;;;;5013828;28;19921;-82
2022/05/20 06:40:18;;;;;;;;;;;;;;;;;;4980298;28;19929;-86
2022/05/20 06:42:43;;;;;;;;;;;;;;;;;;4994279;28;20001;-82
2022/05/20 06:45:09;;;;;;;;;;;;;;;;;;4994936;28;19929;-85
2022/05/20 06:47:35;;;;;;;;;;;;;;;;;;4994830;28;19922;-81
2022/05/20 06:50:00;;;;;;;;;;;;;;;;;;4977364;28;19944;-85
2022/05/20 06:52:26;;;;;;;;;;;;;;;;;;4994194;28;20025;-82
2022/05/20 06:54:51;;;;;;;;;;;;;;;;;;4997472;28;19925;-89
2022/05/20 06:57:18;;;;;;;;;;;;;;;;;;5013539;28;19960;-86
2022/05/20 06:59:43;;;;;;;;;;;;;;;;;;5014090;28;20017;-82
2022/05/20 07:02:09;;;;;;;;;;;;;;;;;;5013736;28;19921;-82
2022/05/20 07:04:34;;;;;;;;;;;;;;;;;;5013883;28;20016;-83
2022/05/20 07:07:00;;;;;;;;;;;;;;;;;;4996371;28;19984;-82
2022/05/20 07:09:25;;;;;;;;;;;;;;;;;;5013709;28;19929;-85
2022/05/20 07:11:52;;;;;;;;;;;;;;;;;;5013862;28;19913;-83
2022/05/20 07:14:17;;;;;;;;;;;;;;;;;;5012847;28;20004;-86
2022/05/20 07:16:43;;;;;;;;;;;;;;;;;;5013425;28;20061;-89
2022/05/20 07:19:09;;;;;;;;;;;;;;;;;;5014152;28;19941;-82
2022/05/20 07:21:34;;;;;;;;;;;;;;;;;;5005420;28;20370;-81
2022/05/20 07:24:01;;;;;;;;;;;;;;;;;;5011516;28;19921;-87
2022/05/20 07:26:27;;;;;;;;;;;;;;;;;;5013082;28;20012;-86
2022/05/20 07:28:52;;;;;;;;;;;;;;;;;;5013706;28;20060;-86
2022/05/20 07:31:18;;;;;;;;;;;;;;;;;;5008109;28;19925;-85
2022/05/20 07:33:43;;;;;;;;;;;;;;;;;;5001239;28;19996;-86
2022/05/20 07:36:09;;;;;;;;;;;;;;;;;;5012953;28;20346;-85
2022/05/20 07:38:34;;;;;;;;;;;;;;;;;;4980001;28;20429;-85
2022/05/20 07:41:00;;;;;;;;;;;;;;;;;;4976204;28;20004;-85
2022/05/20 07:43:26;;;;;;;;;;;;;;;;;;4992934;28;19928;-86
2022/05/20 07:45:51;;;;;;;;;;;;;;;;;;5008775;28;19921;-84
2022/05/20 07:48:16;;;;;;;;;;;;;;;;;;5002645;28;20392;-84
2022/05/20 07:50:45;;;;;;;;;;;;;;;;;;4996104;28;19922;-84
2022/05/20 07:53:20;;;;;;;;;;;;;;;;;;4993243;28;19917;-82
2022/05/20 07:55:49;;;;;;;;;;;;;;;;;;4993776;28;19921;-83
2022/05/20 07:58:16;;;;;;;;;;;;;;;;;;4994459;28;19921;-82
2022/05/20 08:00:41;;;;;;;;;;;;;;;;;;5004282;28;20397;-85
2022/05/20 08:03:08;;;;;;;;;;;;;;;;;;5012677;28;20008;-85
2022/05/20 08:05:36;;;;;;;;;;;;;;;;;;5012369;28;20419;-85
2022/05/20 08:08:04;;;;;;;;;;;;;;;;;;5012967;28;20008;-84
2022/05/20 08:10:31;;;;;;;;;;;;;;;;;;5012973;28;19925;-84
2022/05/20 08:12:57;;;;;;;;;;;;;;;;;;5012532;28;19943;-79
2022/05/20 08:15:23;;;;;;;;;;;;;;;;;;5009341;28;19918;-79
2022/05/20 08:17:49;;;;;;;;;;;;;;;;;;5012406;28;19929;-81
2022/05/20 08:20:23;;;;;;;;;;;;;;;;;;5011614;28;19917;-82
2022/05/20 08:22:49;;;;;;;;;;;;;;;;;;5013021;28;19964;-83
2022/05/20 08:25:15;;;;;;;;;;;;;;;;;;5011731;28;20354;-84
2022/05/20 08:27:40;;;;;;;;;;;;;;;;;;5016251;28;19975;-79
2022/05/20 08:30:10;;;;;;;;;;;;;;;;;;5007409;28;19921;-79
2022/05/20 08:32:36;;;;;;;;;;;;;;;;;;5007134;28;19926;-81
2022/05/20 08:35:03;;;;;;;;;;;;;;;;;;5007650;28;19924;-81
2022/05/20 08:37:30;;;;;;;;;;;;;;;;;;5005243;28;19960;-79
2022/05/20 08:39:56;;;;;;;;;;;;;;;;;;5015826;28;19921;-81
2022/05/20 08:42:22;;;;;;;;;;;;;;;;;;5016356;28;19925;-82
2022/05/20 08:44:48;;;;;;;;;;;;;;;;;;5016321;28;19933;-83
2022/05/20 08:47:13;;;;;;;;;;;;;;;;;;4999053;28;19924;-80
2022/05/20 08:49:39;;;;;;;;;;;;;;;;;;4998738;28;20385;-79
2022/05/20 08:52:05;;;;;;;;;;;;;;;;;;5016420;28;19918;-78
2022/05/20 08:54:31;;;;;;;;;;;;;;;;;;4997058;28;19928;-80
2022/05/20 08:56:56;;;;;;;;;;;;;;;;;;5016269;28;20397;-83
2022/05/20 08:59:22;;;;;;;;;;;;;;;;;;4986441;28;19939;-80
2022/05/20 09:01:50;;;;;;;;;;;;;;;;;;5009738;28;19936;-83
2022/05/20 09:04:17;;;;;;;;;;;;;;;;;;5011999;28;19925;-79
2022/05/20 09:07:01;;;;;;;;;;;;;;;;;;5014470;28;19917;-81
2022/05/20 09:09:47;;;;;;;;;;;;;;;;;;5014421;28;20084;-79
2022/05/20 09:12:32;;;;;;;;;;;;;;;;;;5013730;28;19972;-80
2022/05/20 09:17:49;;;;;;;;;;;;;;;;;;5013913;28;19980;-82
2022/05/20 09:20:17;;;;;;;;;;;;;;;;;;5015546;28;19926;-80
2022/05/20 09:22:52;;;;;;;;;;;;;;;;;;5015862;28;19917;-81
2022/05/20 09:25:20;;;;;;;;;;;;;;;;;;5001904;28;19921;-79
2022/05/20 09:27:46;;;;;;;;;;;;;;;;;;5010362;28;20009;-82
2022/05/20 09:30:13;;;;;;;;;;;;;;;;;;5015802;28;20000;-83
2022/05/20 09:32:43;;;;;;;;;;;;;;;;;;4997978;28;19922;-81
2022/05/20 09:35:14;;;;;;;;;;;;;;;;;;5015348;28;19923;-84
2022/05/20 09:37:40;;;;;;;;;;;;;;;;;;5015224;28;19969;-80
2022/05/20 09:40:36;;;;;;;;;;;;;;;;;;5013662;28;19966;-83
2022/05/20 09:43:03;;;;;;;;;;;;;;;;;;4985834;28;19922;-80
2022/05/20 09:45:34;;;;;;;;;;;;;;;;;;5015234;28;19918;-82
2022/05/20 09:48:00;;;;;;;;;;;;;;;;;;5015239;28;20400;-80
2022/05/20 09:50:31;;;;;;;;;;;;;;;;;;5011515;28;19926;-82
2022/05/20 09:52:59;;;;;;;;;;;;;;;;;;5009337;28;20263;-81
2022/05/20 09:55:29;;;;;;;;;;;;;;;;;;5007615;28;20438;-81
2022/05/20 09:57:56;;;;;;;;;;;;;;;;;;5007647;28;19929;-81
2022/05/20 10:00:26;;;;;;;;;;;;;;;;;;5011601;28;19925;-81
2022/05/20 10:03:12;;;;;;;;;;;;;;;;;;5010097;28;19960;-82
2022/05/20 10:05:44;;;;;;;;;;;;;;;;;;5009576;28;19930;-82
2022/05/20 10:08:15;;;;;;;;;;;;;;;;;;5011679;28;20377;-79
2022/05/20 10:10:41;;;;;;;;;;;;;;;;;;5008383;28;20404;-80
2022/05/20 10:13:08;;;;;;;;;;;;;;;;;;5010697;28;19921;-80
2022/05/20 10:15:38;;;;;;;;;;;;;;;;;;5011345;28;19940;-81
2022/05/20 10:18:07;;;;;;;;;;;;;;;;;;5009274;28;20371;-82
2022/05/20 10:20:39;;;;;;;;;;;;;;;;;;5007745;28;19925;-80
2022/05/20 10:23:05;;;;;;;;;;;;;;;;;;5013794;28;19921;-83
2022/05/20 10:25:49;;;;;;;;;;;;;;;;;;5009018;28;20432;-82
2022/05/20 10:34:01;;;;;;;;;;;;;;;;;;5014400;28;19921;-86
2022/05/20 10:36:30;;;;;;;;;;;;;;;;;;5013978;28;19918;-83
2022/05/20 10:39:04;;;;;;;;;;;;;;;;;;5011643;28;19928;-79
2022/05/20 10:41:29;;;;;;;;;;;;;;;;;;5012532;28;20284;-83
2022/05/20 10:49:49;;;;;;;;;;;;;;;;;;4993740;28;20017;-81
2022/05/20 10:52:22;;;;;;;;;;;;;;;;;;4994562;28;19921;-82
2022/05/20 10:55:10;;;;;;;;;;;;;;;;;;4994056;28;20012;-81
2022/05/20 10:57:39;;;;;;;;;;;;;;;;;;4994333;28;19957;-84
2022/05/20 11:00:16;;;;;;;;;;;;;;;;;;4993744;28;19940;-84
2022/05/20 11:03:01;;;;;;;;;;;;;;;;;;4994130;28;19957;-86
2022/05/20 11:05:47;;;;;;;;;;;;;;;;;;4993749;28;19932;-84
2022/05/20 11:08:17;;;;;;;;;;;;;;;;;;4976562;28;19968;-84
2022/05/20 11:10:58;;;;;;;;;;;;;;;;;;4994225;28;19941;-84
2022/05/20 11:13:36;;;;;;;;;;;;;;;;;;4994000;28;19922;-83
2022/05/20 11:16:01;;;;;;;;;;;;;;;;;;4993928;28;20700;-82
2022/05/20 11:18:42;;;;;;;;;;;;;;;;;;4976342;28;20024;-81
2022/05/20 11:21:14;;;;;;;;;;;;;;;;;;4995303;28;19969;-82
2022/05/20 11:23:45;;;;;;;;;;;;;;;;;;4995208;28;19917;-83
2022/05/20 11:26:14;;;;;;;;;;;;;;;;;;4978610;28;19940;-82
2022/05/20 11:28:42;;;;;;;;;;;;;;;;;;4994098;28;19939;-82
2022/05/20 11:31:17;;;;;;;;;;;;;;;;;;4995715;28;19921;-83
2022/05/20 11:34:09;;;;;;;;;;;;;;;;;;4993479;28;19918;-83
2022/05/20 11:36:34;;;;;;;;;;;;;;;;;;5000181;28;19921;-80
2022/05/20 11:39:03;;;;;;;;;;;;;;;;;;4991456;28;19987;-81
2022/05/20 11:41:37;;;;;;;;;;;;;;;;;;5005648;28;20498;-81
2022/05/20 11:44:09;;;;;;;;;;;;;;;;;;5009820;28;19975;-82
2022/05/20 11:46:53;;;;;;;;;;;;;;;;;;5010838;28;19975;-84
2022/05/20 11:49:38;;;;;;;;;;;;;;;;;;5012213;28;19967;-84
2022/05/20 11:52:39;;;;;;;;;;;;;;;;;;5006991;28;19965;-83
2022/05/20 11:55:07;;;;;;;;;;;;;;;;;;4944763;29;19946;-81
2022/05/20 11:57:35;;;;;;;;;;;;;;;;;;4933347;29;20291;-77
2022/05/20 12:00:23;;;;;;;;;;;;;;;;;;4932912;29;20312;-83
2022/05/20 12:02:51;;;;;;;;;;;;;;;;;;4943180;29;19923;-86
2022/05/20 12:05:18;;;;;;;;;;;;;;;;;;4941187;29;19931;-78
2022/05/20 12:07:44;;;;;;;;;;;;;;;;;;4933473;29;19915;-82
2022/05/20 12:10:18;;;;;;;;;;;;;;;;;;4932999;29;20518;-86
2022/05/20 12:12:51;;;;;;;;;;;;;;;;;;4933494;29;20038;-78
2022/05/20 12:15:20;;;;;;;;;;;;;;;;;;4932568;29;20024;-78
2022/05/20 12:17:49;;;;;;;;;;;;;;;;;;4933236;29;19941;-81
2022/05/20 12:25:53;;;;;;;;;;;;;;;;;;4933069;29;19919;-82
2022/05/20 12:28:21;;;;;;;;;;;;;;;;;;4944787;28;19918;-83
2022/05/20 12:31:06;;;;;;;;;;;;;;;;;;4993200;28;19933;-86
2022/05/20 12:34:05;;;;;;;;;;;;;;;;;;4992786;28;19992;-84
2022/05/20 12:36:30;;;;;;;;;;;;;;;;;;4970265;28;20388;-82
2022/05/20 12:39:22;;;;;;;;;;;;;;;;;;5007986;28;20008;-80
2022/05/20 12:41:47;;;;;;;;;;;;;;;;;;5007053;28;19925;-82
2022/05/20 12:44:15;;;;;;;;;;;;;;;;;;4993976;28;20288;-83
2022/05/20 12:46:48;;;;;;;;;;;;;;;;;;5012768;28;19924;-84
2022/05/20 12:49:13;;;;;;;;;;;;;;;;;;5012432;28;19921;-82
2022/05/20 12:51:44;;;;;;;;;;;;;;;;;;5012412;28;19918;-80
2022/05/20 12:54:21;;;;;;;;;;;;;;;;;;5012417;28;19921;-83
2022/05/20 12:56:47;;;;;;;;;;;;;;;;;;5012216;28;19937;-85
2022/05/20 12:59:17;;;;;;;;;;;;;;;;;;5012566;28;19917;-86
2022/05/20 13:01:45;;;;;;;;;;;;;;;;;;5012038;28;19917;-80
2022/05/20 13:04:13;;;;;;;;;;;;;;;;;;5012073;28;19987;-79
2022/05/20 13:06:42;;;;;;;;;;;;;;;;;;5012402;28;19917;-80
2022/05/20 13:09:08;;;;;;;;;;;;;;;;;;5012344;28;20395;-82
2022/05/20 13:11:41;;;;;;;;;;;;;;;;;;5012168;28;19917;-82
2022/05/20 13:14:10;;;;;;;;;;;;;;;;;;5015869;28;19917;-79
2022/05/20 13:16:35;;;;;;;;;;;;;;;;;;5015782;28;20024;-83
2022/05/20 13:19:08;;;;;;;;;;;;;;;;;;5016011;28;19965;-78
2022/05/20 13:21:41;;;;;;;;;;;;;;;;;;5015453;28;19971;-81
2022/05/20 13:24:15;;;;;;;;;;;;;;;;;;5015637;28;19921;-81
2022/05/20 13:26:43;;;;;;;;;;;;;;;;;;5015957;28;20016;-79
2022/05/20 13:29:10;;;;;;;;;;;;;;;;;;5015821;28;19917;-84
2022/05/20 13:31:36;;;;;;;;;;;;;;;;;;5015522;28;19936;-80
2022/05/20 13:34:01;;;;;;;;;;;;;;;;;;5015474;28;19959;-85
2022/05/20 13:36:32;;;;;;;;;;;;;;;;;;5015421;28;19921;-79
2022/05/20 13:39:02;;;;;;;;;;;;;;;;;;5015591;28;19921;-82
2022/05/20 13:41:29;;;;;;;;;;;;;;;;;;4997186;28;20020;-79
2022/05/20 13:43:54;;;;;;;;;;;;;;;;;;5015210;28;19921;-78
2022/05/20 13:49:18;;;;;;;;;;;;;;;;;;5015902;28;20068;-80
2022/05/20 13:51:46;;;;;;;;;;;;;;;;;;5015265;28;20277;-86
2022/05/20 13:54:15;;;;;;;;;;;;;;;;;;5014912;28;19925;-79
2022/05/20 13:56:42;;;;;;;;;;;;;;;;;;5015356;28;19917;-83
2022/05/20 13:59:17;;;;;;;;;;;;;;;;;;4997626;28;20724;-78
2022/05/20 14:01:45;;;;;;;;;;;;;;;;;;5014507;28;19918;-87
2022/05/20 14:04:10;;;;;;;;;;;;;;;;;;5014922;28;19917;-84
2022/05/20 14:06:37;;;;;;;;;;;;;;;;;;5015100;28;19917;-86
2022/05/20 14:09:03;;;;;;;;;;;;;;;;;;5014760;28;19918;-83
2022/05/20 14:11:52;;;;;;;;;;;;;;;;;;5014739;28;19928;-79
2022/05/20 14:14:19;;;;;;;;;;;;;;;;;;5014471;28;20012;-86
2022/05/20 14:16:48;;;;;;;;;;;;;;;;;;5014529;28;20412;-81
2022/05/20 14:19:15;;;;;;;;;;;;;;;;;;4997088;28;19917;-84
2022/05/20 14:21:41;;;;;;;;;;;;;;;;;;5014055;28;20004;-81
2022/05/20 14:24:09;;;;;;;;;;;;;;;;;;5013465;28;19921;-82
2022/05/20 14:26:40;;;;;;;;;;;;;;;;;;5015007;28;19964;-89
2022/05/20 14:29:09;;;;;;;;;;;;;;;;;;5014656;28;19965;-84
2022/05/20 14:31:41;;;;;;;;;;;;;;;;;;5014581;28;19940;-83
2022/05/20 14:34:06;;;;;;;;;;;;;;;;;;4996583;28;19924;-80
2022/05/20 14:36:33;;;;;;;;;;;;;;;;;;4996993;28;19917;-85
2022/05/20 14:39:00;;;;;;;;;;;;;;;;;;5014780;28;19918;-79
2022/05/20 14:41:26;;;;;;;;;;;;;;;;;;5012225;28;19930;-84
2022/05/20 14:43:54;;;;;;;;;;;;;;;;;;5013935;28;19991;-89
2022/05/20 14:49:29;;;;;;;;;;;;;;;;;;5014339;28;19932;-86
2022/05/20 14:51:55;;;;;;;;;;;;;;;;;;5001702;28;19932;-87
2022/05/20 14:54:24;;;;;;;;;;;;;;;;;;5013950;28;19929;-89
2022/05/20 14:56:50;;;;;;;;;;;;;;;;;;5012968;28;19953;-86
2022/05/20 14:59:33;;;;;;;;;;;;;;;;;;4994031;28;19925;-84
2022/05/20 15:01:58;;;;;;;;;;;;;;;;;;4992512;28;19965;-86
2022/05/20 15:04:24;;;;;;;;;;;;;;;;;;4993851;28;20297;-88
2022/05/20 15:06:50;;;;;;;;;;;;;;;;;;4994283;28;20008;-87
2022/05/20 15:09:23;;;;;;;;;;;;;;;;;;4994284;28;19918;-88
2022/05/20 15:11:49;;;;;;;;;;;;;;;;;;4994532;28;19925;-86
2022/05/20 15:14:15;;;;;;;;;;;;;;;;;;4994094;28;19918;-85
2022/05/20 15:16:42;;;;;;;;;;;;;;;;;;4994274;28;19917;-86
2022/05/20 15:19:08;;;;;;;;;;;;;;;;;;4994055;28;20735;-88
2022/05/20 15:21:34;;;;;;;;;;;;;;;;;;4976579;28;19941;-86
2022/05/20 15:24:05;;;;;;;;;;;;;;;;;;5007683;28;20366;-85
2022/05/20 15:26:31;;;;;;;;;;;;;;;;;;5014024;28;20020;-88
2022/05/20 15:28:58;;;;;;;;;;;;;;;;;;5013895;28;19943;-88
2022/05/20 15:36:56;;;;;;;;;;;;;;;;;;5013796;28;19993;-86
2022/05/20 15:39:23;;;;;;;;;;;;;;;;;;5013292;28;19917;-87
2022/05/20 15:41:49;;;;;;;;;;;;;;;;;;5008913;28;20354;-86
2022/05/20 15:44:14;;;;;;;;;;;;;;;;;;4981641;28;19979;-81
2022/05/20 15:46:40;;;;;;;;;;;;;;;;;;5010153;28;20378;-89
2022/05/20 15:49:05;;;;;;;;;;;;;;;;;;5007193;28;19953;-87
2022/05/20 15:51:31;;;;;;;;;;;;;;;;;;5004867;28;19925;-87
2022/05/20 15:53:57;;;;;;;;;;;;;;;;;;5007916;28;19932;-89
2022/05/20 15:56:23;;;;;;;;;;;;;;;;;;5012875;28;20409;-89
2022/05/20 15:58:50;;;;;;;;;;;;;;;;;;4994618;28;19971;-85
2022/05/20 16:01:15;;;;;;;;;;;;;;;;;;5012216;28;20008;-84
2022/05/20 16:03:41;;;;;;;;;;;;;;;;;;5006437;28;20068;-85
2022/05/20 16:06:08;;;;;;;;;;;;;;;;;;4975714;28;20242;-86
2022/05/20 16:08:33;;;;;;;;;;;;;;;;;;4993821;28;19918;-85
2022/05/20 16:10:58;;;;;;;;;;;;;;;;;;4993607;28;19940;-85
2022/05/20 16:13:24;;;;;;;;;;;;;;;;;;4994444;28;20282;-87
2022/05/20 16:15:50;;;;;;;;;;;;;;;;;;5013578;28;19918;-87
2022/05/20 16:18:16;;;;;;;;;;;;;;;;;;5010871;28;19922;-89
2022/05/20 16:20:42;;;;;;;;;;;;;;;;;;5011501;28;19917;-88
2022/05/20 16:23:11;;;;;;;;;;;;;;;;;;5012183;28;19922;-82
2022/05/20 16:25:37;;;;;;;;;;;;;;;;;;5012312;28;20428;-85
2022/05/20 16:28:04;;;;;;;;;;;;;;;;;;5012755;28;20016;-82
2022/05/20 16:30:29;;;;;;;;;;;;;;;;;;5012735;28;19944;-87
2022/05/20 16:32:56;;;;;;;;;;;;;;;;;;5012822;28;20340;-84
2022/05/20 16:35:21;;;;;;;;;;;;;;;;;;5012524;28;20004;-85
2022/05/20 16:37:51;;;;;;;;;;;;;;;;;;5012772;28;20021;-80
2022/05/20 16:40:19;;;;;;;;;;;;;;;;;;5012438;28;20301;-81
2022/05/20 16:42:45;;;;;;;;;;;;;;;;;;5011704;28;20000;-83
2022/05/20 16:45:11;;;;;;;;;;;;;;;;;;5012416;28;19917;-80
2022/05/20 16:47:39;;;;;;;;;;;;;;;;;;5014017;28;20339;-82
2022/05/20 16:50:05;;;;;;;;;;;;;;;;;;5016074;28;20274;-85
2022/05/20 16:52:30;;;;;;;;;;;;;;;;;;5016666;28;19972;-82
2022/05/20 16:55:01;;;;;;;;;;;;;;;;;;5016346;28;19918;-82
2022/05/20 17:02:55;;;;;;;;;;;;;;;;;;5015935;28;19931;-89
2022/05/20 17:05:21;;;;;;;;;;;;;;;;;;5015878;28;19966;-88
2022/05/20 17:07:46;;;;;;;;;;;;;;;;;;5016278;28;19913;-81
2022/05/20 17:10:12;;;;;;;;;;;;;;;;;;5015991;28;19957;-83
2022/05/20 17:12:37;;;;;;;;;;;;;;;;;;5016206;28;20354;-80
2022/05/20 17:15:04;;;;;;;;;;;;;;;;;;5015137;28;20289;-82
2022/05/20 17:17:29;;;;;;;;;;;;;;;;;;5016257;28;19925;-87
2022/05/20 17:19:55;;;;;;;;;;;;;;;;;;5015952;28;19917;-82
2022/05/20 17:25:05;;;;;;;;;;;;;;;;;;5015777;28;20400;-82
2022/05/20 17:27:31;;;;;;;;;;;;;;;;;;5015908;28;19917;-82
2022/05/20 17:30:00;;;;;;;;;;;;;;;;;;5015920;28;20371;-83
2022/05/20 17:32:25;;;;;;;;;;;;;;;;;;5015454;28;19961;-80
2022/05/20 17:34:51;;;;;;;;;;;;;;;;;;5015692;28;19956;-82
2022/05/20 17:37:18;;;;;;;;;;;;;;;;;;5015710;28;20040;-83
2022/05/20 17:39:43;;;;;;;;;;;;;;;;;;5015441;28;19924;-82
2022/05/20 17:42:11;;;;;;;;;;;;;;;;;;5013845;28;19922;-87
2022/05/20 17:44:37;;;;;;;;;;;;;;;;;;4981355;28;19917;-84
2022/05/20 17:47:03;;;;;;;;;;;;;;;;;;5014180;28;19975;-84
2022/05/20 17:49:29;;;;;;;;;;;;;;;;;;5014228;28;20384;-81
2022/05/20 17:51:54;;;;;;;;;;;;;;;;;;5014374;28;19924;-81